createdAt,value
2023-12-15T00:00:57.016Z,95813.00
2023-12-15T00:01:56.983Z,95817.00
2023-12-15T00:02:56.983Z,95817.00
2023-12-15T00:03:56.999Z,95818.00
2023-12-15T00:04:56.984Z,95817.00
2023-12-15T00:05:56.997Z,95820.00
2023-12-15T00:06:57.024Z,95822.00
2023-12-15T00:07:57.093Z,95823.00
2023-12-15T00:08:57.052Z,95826.00
2023-12-15T00:09:57.989Z,95828.00
2023-12-15T00:10:57.197Z,95828.00
2023-12-15T00:11:57.176Z,95830.00
2023-12-15T00:12:57.219Z,95833.00
2023-12-15T00:13:57.247Z,95835.00
2023-12-15T00:14:57.242Z,95836.00
2023-12-15T00:15:57.282Z,95838.00
2023-12-15T00:16:57.371Z,95840.00
2023-12-15T00:17:57.585Z,95840.00
2023-12-15T00:18:57.600Z,95839.00
2023-12-15T00:19:57.735Z,95841.00
2023-12-15T00:20:57.868Z,95841.00
2023-12-15T00:21:57.738Z,95840.00
2023-12-15T00:22:57.755Z,95838.00
2023-12-15T00:23:57.789Z,95836.00
2023-12-15T00:24:57.766Z,95838.00
2023-12-15T00:25:57.829Z,95839.00
2023-12-15T00:26:57.853Z,95842.00
2023-12-15T00:27:57.946Z,95848.00
2023-12-15T00:28:58.087Z,95850.00
2023-12-15T00:29:58.209Z,95854.00
2023-12-15T00:30:58.129Z,95856.00
2023-12-15T00:31:58.178Z,95859.00
2023-12-15T00:32:58.221Z,95859.00
2023-12-15T00:33:58.217Z,95854.00
2023-12-15T00:34:58.169Z,95852.00
2023-12-15T00:35:58.177Z,95849.00
2023-12-15T00:36:58.318Z,95850.00
2023-12-15T00:37:58.335Z,95849.00
2023-12-15T00:38:58.345Z,95853.00
2023-12-15T00:39:58.319Z,95855.00
2023-12-15T00:40:58.387Z,95856.00
2023-12-15T00:41:58.356Z,95859.00
2023-12-15T00:42:58.463Z,95857.00
2023-12-15T00:43:58.526Z,95859.00
2023-12-15T00:44:58.637Z,95859.00
2023-12-15T00:45:58.631Z,95861.00
2023-12-15T00:46:58.623Z,95865.00
2023-12-15T00:47:58.668Z,95867.00
2023-12-15T00:48:58.695Z,95867.00
2023-12-15T00:49:58.686Z,95867.00
2023-12-15T00:50:58.702Z,95865.00
2023-12-15T00:51:58.737Z,95864.00
2023-12-15T00:52:58.878Z,95868.00
2023-12-15T00:53:58.787Z,95870.00
2023-12-15T00:54:58.816Z,95875.00
2023-12-15T00:55:58.885Z,95876.00
2023-12-15T00:56:58.871Z,95878.00
2023-12-15T00:57:58.911Z,95880.00
2023-12-15T00:58:58.932Z,95877.00
2023-12-15T00:59:58.940Z,95874.00
2023-12-15T01:00:58.953Z,95874.00
2023-12-15T01:01:58.998Z,95878.00
2023-12-15T01:02:59.034Z,95878.00
2023-12-15T01:03:59.008Z,95880.00
2023-12-15T01:04:59.077Z,95882.00
2023-12-15T01:05:59.160Z,95883.00
2023-12-15T01:06:59.047Z,95885.00
2023-12-15T01:07:59.149Z,95888.00
2023-12-15T01:08:59.145Z,95890.00
2023-12-15T01:09:59.129Z,95892.00
2023-12-15T01:10:59.199Z,95889.00
2023-12-15T01:11:59.157Z,95888.00
2023-12-15T01:12:59.189Z,95892.00
2023-12-15T01:13:59.316Z,95893.00
2023-12-15T01:14:59.370Z,95896.00
2023-12-15T01:15:59.390Z,95898.00
2023-12-15T01:16:59.403Z,95898.00
2023-12-15T01:17:59.512Z,95899.00
2023-12-15T01:18:59.549Z,95900.00
2023-12-15T01:19:59.480Z,95901.00
2023-12-15T01:20:59.489Z,95899.00
2023-12-15T01:21:59.659Z,95899.00
2023-12-15T01:22:59.763Z,95896.00
2023-12-15T01:23:59.831Z,95898.00
2023-12-15T01:24:59.934Z,95900.00
2023-12-15T01:26:00.077Z,95901.00
2023-12-15T01:27:00.043Z,95904.00
2023-12-15T01:28:00.053Z,95910.00
2023-12-15T01:29:00.039Z,95913.00
2023-12-15T01:30:00.063Z,95914.00
2023-12-15T01:31:00.088Z,95913.00
2023-12-15T01:32:00.318Z,95911.00
2023-12-15T01:33:00.314Z,95911.00
2023-12-15T01:34:00.431Z,95912.00
2023-12-15T01:35:00.575Z,95916.00
2023-12-15T01:36:00.610Z,95920.00
2023-12-15T01:37:00.704Z,95922.00
2023-12-15T01:38:00.787Z,95923.00
2023-12-15T01:39:00.873Z,95925.00
2023-12-15T01:40:01.023Z,95925.00
2023-12-15T01:41:00.978Z,95925.00
2023-12-15T01:42:01.004Z,95922.00
2023-12-15T01:43:01.044Z,95923.00
2023-12-15T01:44:01.022Z,95924.00
2023-12-15T01:45:01.104Z,95925.00
2023-12-15T01:46:05.690Z,95924.00
2023-12-15T01:47:02.132Z,95922.00
2023-12-15T01:48:01.304Z,95921.00
2023-12-15T01:49:01.212Z,95923.00
2023-12-15T01:50:01.174Z,95927.00
2023-12-15T01:51:01.096Z,95928.00
2023-12-15T01:52:01.094Z,95932.00
2023-12-15T01:53:01.185Z,95934.00
2023-12-15T01:54:01.103Z,95935.00
2023-12-15T01:55:01.135Z,95936.00
2023-12-15T01:56:01.280Z,95940.00
2023-12-15T01:57:01.128Z,95945.00
2023-12-15T01:58:01.169Z,95946.00
2023-12-15T01:59:01.166Z,95945.00
2023-12-15T02:00:01.180Z,95946.00
2023-12-15T02:01:01.333Z,95946.00
2023-12-15T02:02:01.205Z,95949.00
2023-12-15T02:03:01.141Z,95952.00
2023-12-15T02:04:01.217Z,95952.00
2023-12-15T02:05:01.249Z,95952.00
2023-12-15T02:06:01.263Z,95951.00
2023-12-15T02:07:01.150Z,95949.00
2023-12-15T02:08:01.188Z,95951.00
2023-12-15T02:09:01.147Z,95956.00
2023-12-15T02:10:01.158Z,95960.00
2023-12-15T02:11:01.200Z,95961.00
2023-12-15T02:12:01.183Z,95963.00
2023-12-15T02:13:01.170Z,95963.00
2023-12-15T02:14:01.149Z,95961.00
2023-12-15T02:15:01.140Z,95959.00
2023-12-15T02:16:01.169Z,95956.00
2023-12-15T02:17:01.182Z,95956.00
2023-12-15T02:18:01.287Z,95957.00
2023-12-15T02:19:01.352Z,95961.00
2023-12-15T02:20:01.387Z,95966.00
2023-12-15T02:21:01.399Z,95965.00
2023-12-15T02:22:01.471Z,95964.00
2023-12-15T02:23:01.584Z,95965.00
2023-12-15T02:24:01.614Z,95966.00
2023-12-15T02:25:01.670Z,95970.00
2023-12-15T02:26:01.798Z,95969.00
2023-12-15T02:27:01.787Z,95973.00
2023-12-15T02:28:01.829Z,95974.00
2023-12-15T02:29:01.950Z,95974.00
2023-12-15T02:30:01.937Z,95976.00
2023-12-15T02:31:02.015Z,95977.00
2023-12-15T02:32:02.097Z,95975.00
2023-12-15T02:33:02.245Z,95978.00
2023-12-15T02:34:02.256Z,95980.00
2023-12-15T02:35:02.225Z,95983.00
2023-12-15T02:36:02.172Z,95982.00
2023-12-15T02:37:02.232Z,95982.00
2023-12-15T02:38:02.361Z,95982.00
2023-12-15T02:39:02.298Z,95980.00
2023-12-15T02:40:02.346Z,95978.00
2023-12-15T02:41:02.377Z,95978.00
2023-12-15T02:42:02.396Z,95982.00
2023-12-15T02:43:02.436Z,95986.00
2023-12-15T02:44:02.516Z,95990.00
2023-12-15T02:45:02.534Z,95992.00
2023-12-15T02:46:02.527Z,95992.00
2023-12-15T02:47:02.593Z,95990.00
2023-12-15T02:48:02.781Z,95992.00
2023-12-15T02:49:02.646Z,95996.00
2023-12-15T02:50:02.700Z,95996.00
2023-12-15T02:51:03.556Z,95994.00
2023-12-15T02:52:02.669Z,95996.00
2023-12-15T02:53:02.704Z,95996.00
2023-12-15T02:54:02.726Z,96000.00
2023-12-15T02:55:02.741Z,95999.00
2023-12-15T02:56:02.829Z,96001.00
2023-12-15T02:57:02.770Z,96003.00
2023-12-15T02:58:02.844Z,96001.00
2023-12-15T02:59:02.854Z,96006.00
2023-12-15T03:00:02.854Z,96010.00
2023-12-15T03:01:02.862Z,96009.00
2023-12-15T03:02:02.915Z,96010.00
2023-12-15T03:03:02.901Z,96011.00
2023-12-15T03:04:02.908Z,96011.00
2023-12-15T03:05:02.911Z,96013.00
2023-12-15T03:06:02.956Z,96017.00
2023-12-15T03:07:02.936Z,96017.00
2023-12-15T03:08:02.944Z,96018.00
2023-12-15T03:09:02.938Z,96015.00
2023-12-15T03:10:02.935Z,96014.00
2023-12-15T03:11:02.976Z,96012.00
2023-12-15T03:12:02.949Z,96014.00
2023-12-15T03:13:03.014Z,96014.00
2023-12-15T03:14:03.064Z,96016.00
2023-12-15T03:15:03.004Z,96014.00
2023-12-15T03:16:03.152Z,96015.00
2023-12-15T03:17:03.282Z,96014.00
2023-12-15T03:18:03.246Z,96015.00
2023-12-15T03:19:03.284Z,96015.00
2023-12-15T03:20:03.378Z,96014.00
2023-12-15T03:21:03.390Z,96015.00
2023-12-15T03:22:03.453Z,96016.00
2023-12-15T03:23:03.513Z,96017.00
2023-12-15T03:24:03.578Z,96019.00
2023-12-15T03:25:03.719Z,96023.00
2023-12-15T03:26:03.750Z,96024.00
2023-12-15T03:27:03.771Z,96026.00
2023-12-15T03:28:03.833Z,96023.00
2023-12-15T03:29:03.931Z,96028.00
2023-12-15T03:30:03.935Z,96029.00
2023-12-15T03:31:04.026Z,96031.00
2023-12-15T03:32:04.112Z,96032.00
2023-12-15T03:33:04.185Z,96033.00
2023-12-15T03:34:04.127Z,96032.00
2023-12-15T03:35:04.270Z,96033.00
2023-12-15T03:36:04.161Z,96032.00
2023-12-15T03:37:04.163Z,96034.00
2023-12-15T03:38:04.278Z,96035.00
2023-12-15T03:39:04.240Z,96034.00
2023-12-15T03:40:04.248Z,96034.00
2023-12-15T03:41:04.281Z,96040.00
2023-12-15T03:42:04.311Z,96042.00
2023-12-15T03:43:04.418Z,96043.00
2023-12-15T03:44:04.544Z,96045.00
2023-12-15T03:45:04.565Z,96045.00
2023-12-15T03:46:04.606Z,96043.00
2023-12-15T03:47:04.675Z,96043.00
2023-12-15T03:48:04.874Z,96041.00
2023-12-15T03:49:04.779Z,96047.00
2023-12-15T03:50:04.816Z,96051.00
2023-12-15T03:51:04.869Z,96057.00
2023-12-15T03:52:04.900Z,96062.00
2023-12-15T03:53:05.015Z,96063.00
2023-12-15T03:54:05.061Z,96061.00
2023-12-15T03:55:05.098Z,96060.00
2023-12-15T03:56:05.169Z,96061.00
2023-12-15T03:57:05.203Z,96063.00
2023-12-15T03:58:05.269Z,96065.00
2023-12-15T03:59:05.370Z,96068.00
2023-12-15T04:00:05.386Z,96069.00
2023-12-15T04:01:05.493Z,96070.00
2023-12-15T04:02:07.489Z,96070.00
2023-12-15T04:03:05.547Z,96070.00
2023-12-15T04:04:05.541Z,96069.00
2023-12-15T04:05:05.609Z,96070.00
2023-12-15T04:06:05.581Z,96075.00
2023-12-15T04:07:05.565Z,96077.00
2023-12-15T04:08:05.538Z,96077.00
2023-12-15T04:09:05.520Z,96076.00
2023-12-15T04:10:05.521Z,96076.00
2023-12-15T04:11:05.595Z,96074.00
2023-12-15T04:12:05.529Z,96074.00
2023-12-15T04:13:05.545Z,96078.00
2023-12-15T04:14:05.585Z,96088.00
2023-12-15T04:15:05.533Z,96093.00
2023-12-15T04:16:05.528Z,96094.00
2023-12-15T04:17:05.572Z,96091.00
2023-12-15T04:18:05.961Z,96088.00
2023-12-15T04:19:05.599Z,96085.00
2023-12-15T04:20:05.638Z,96084.00
2023-12-15T04:21:05.675Z,96087.00
2023-12-15T04:22:05.537Z,96094.00
2023-12-15T04:23:05.619Z,96099.00
2023-12-15T04:24:05.548Z,96101.00
2023-12-15T04:25:05.530Z,96102.00
2023-12-15T04:26:05.613Z,96103.00
2023-12-15T04:27:05.616Z,96100.00
2023-12-15T04:28:05.587Z,96096.00
2023-12-15T04:29:05.634Z,96093.00
2023-12-15T04:30:05.820Z,96098.00
2023-12-15T04:31:05.747Z,96100.00
2023-12-15T04:32:05.834Z,96103.00
2023-12-15T04:33:05.941Z,96104.00
2023-12-15T04:34:05.946Z,96107.00
2023-12-15T04:35:06.056Z,96111.00
2023-12-15T04:36:06.089Z,96112.00
2023-12-15T04:37:13.920Z,96116.00
2023-12-15T04:38:13.938Z,96116.00
2023-12-15T04:39:13.919Z,96116.00
2023-12-15T04:40:13.911Z,96117.00
2023-12-15T04:41:13.969Z,96114.00
2023-12-15T04:42:13.945Z,96113.00
2023-12-15T04:43:13.938Z,96115.00
2023-12-15T04:44:13.928Z,96115.00
2023-12-15T04:45:13.911Z,96119.00
2023-12-15T04:46:13.905Z,96121.00
2023-12-15T04:47:13.973Z,96123.00
2023-12-15T04:48:13.993Z,96124.00
2023-12-15T04:49:13.988Z,96129.00
2023-12-15T04:50:13.976Z,96134.00
2023-12-15T04:51:13.928Z,96140.00
2023-12-15T04:52:13.928Z,96144.00
2023-12-15T04:53:13.990Z,96146.00
2023-12-15T04:54:13.934Z,96143.00
2023-12-15T04:55:13.946Z,96143.00
2023-12-15T04:56:13.974Z,96141.00
2023-12-15T04:57:13.945Z,96144.00
2023-12-15T04:58:13.983Z,96145.00
2023-12-15T04:59:14.012Z,96148.00
2023-12-15T05:00:13.997Z,96147.00
2023-12-15T05:01:13.966Z,96151.00
2023-12-15T05:02:14.058Z,96149.00
2023-12-15T05:03:14.006Z,96150.00
2023-12-15T05:04:13.982Z,96148.00
2023-12-15T05:05:14.056Z,96150.00
2023-12-15T05:06:14.105Z,96154.00
2023-12-15T05:07:14.156Z,96157.00
2023-12-15T05:08:14.282Z,96160.00
2023-12-15T05:09:14.263Z,96163.00
2023-12-15T05:10:14.358Z,96164.00
2023-12-15T05:11:14.331Z,96162.00
2023-12-15T05:12:14.390Z,96161.00
2023-12-15T05:13:14.427Z,96158.00
2023-12-15T05:14:14.506Z,96155.00
2023-12-15T05:15:14.502Z,96155.00
2023-12-15T05:16:14.571Z,96156.00
2023-12-15T05:17:14.647Z,96162.00
2023-12-15T05:18:14.794Z,96169.00
2023-12-15T05:19:14.910Z,96171.00
2023-12-15T05:20:14.726Z,96173.00
2023-12-15T05:21:14.751Z,96171.00
2023-12-15T05:22:14.791Z,96169.00
2023-12-15T05:23:14.873Z,96167.00
2023-12-15T05:24:14.843Z,96167.00
2023-12-15T05:25:14.868Z,96172.00
2023-12-15T05:26:15.597Z,96176.00
2023-12-15T05:27:14.926Z,96181.00
2023-12-15T05:28:14.950Z,96182.00
2023-12-15T05:29:14.963Z,96182.00
2023-12-15T05:30:15.023Z,96180.00
2023-12-15T05:31:14.990Z,96179.00
2023-12-15T05:32:15.132Z,96182.00
2023-12-15T05:33:15.094Z,96183.00
2023-12-15T05:34:15.147Z,96187.00
2023-12-15T05:35:15.062Z,96188.00
2023-12-15T05:36:15.057Z,96191.00
2023-12-15T05:37:15.073Z,96194.00
2023-12-15T05:38:15.209Z,96194.00
2023-12-15T05:39:15.044Z,96196.00
2023-12-15T05:40:15.087Z,96200.00
2023-12-15T05:41:15.135Z,96199.00
2023-12-15T05:42:15.091Z,96198.00
2023-12-15T05:43:15.069Z,96198.00
2023-12-15T05:44:15.155Z,96203.00
2023-12-15T05:45:15.114Z,96205.00
2023-12-15T05:46:15.154Z,96208.00
2023-12-15T05:47:15.185Z,96210.00
2023-12-15T05:48:15.338Z,96212.00
2023-12-15T05:49:15.328Z,96212.00
2023-12-15T05:50:15.356Z,96212.00
2023-12-15T05:51:15.214Z,96211.00
2023-12-15T05:52:15.215Z,96211.00
2023-12-15T05:53:15.254Z,96215.00
2023-12-15T05:54:15.236Z,96219.00
2023-12-15T05:55:15.253Z,96222.00
2023-12-15T05:56:15.281Z,96224.00
2023-12-15T05:57:15.260Z,96225.00
2023-12-15T05:58:15.287Z,96228.00
2023-12-15T05:59:15.308Z,96229.00
2023-12-15T06:00:15.290Z,96228.00
2023-12-15T06:01:37.789Z,96226.00
2023-12-15T06:02:15.362Z,96229.00
2023-12-15T06:03:15.350Z,96230.00
2023-12-15T06:04:15.333Z,96229.00
2023-12-15T06:05:15.382Z,96234.00
2023-12-15T06:06:15.431Z,96240.00
2023-12-15T06:07:15.319Z,96241.00
2023-12-15T06:08:15.420Z,96240.00
2023-12-15T06:09:15.307Z,96242.00
2023-12-15T06:10:15.332Z,96243.00
2023-12-15T06:11:15.332Z,96245.00
2023-12-15T06:12:15.316Z,96246.00
2023-12-15T06:13:15.299Z,96248.00
2023-12-15T06:14:15.391Z,96248.00
2023-12-15T06:15:15.321Z,96249.00
2023-12-15T06:16:15.402Z,96253.00
2023-12-15T06:17:15.324Z,96255.00
2023-12-15T06:18:15.403Z,96257.00
2023-12-15T06:19:15.375Z,96258.00
2023-12-15T06:20:15.416Z,96257.00
2023-12-15T06:21:15.318Z,96259.00
2023-12-15T06:22:15.356Z,96260.00
2023-12-15T06:23:15.365Z,96261.00
2023-12-15T06:24:15.361Z,96266.00
2023-12-15T06:25:15.321Z,96270.00
2023-12-15T06:26:15.347Z,96271.00
2023-12-15T06:27:15.353Z,96274.00
2023-12-15T06:28:15.327Z,96273.00
2023-12-15T06:29:15.391Z,96272.00
2023-12-15T06:30:15.389Z,96273.00
2023-12-15T06:31:15.377Z,96276.00
2023-12-15T06:32:15.324Z,96281.00
2023-12-15T06:33:15.425Z,96282.00
2023-12-15T06:34:15.652Z,96286.00
2023-12-15T06:35:15.340Z,96290.00
2023-12-15T06:36:15.350Z,96289.00
2023-12-15T06:37:15.396Z,96290.00
2023-12-15T06:38:15.363Z,96295.00
2023-12-15T06:39:15.371Z,96297.00
2023-12-15T06:40:15.356Z,96299.00
2023-12-15T06:41:16.083Z,96302.00
2023-12-15T06:42:15.339Z,96306.00
2023-12-15T06:43:15.360Z,96310.00
2023-12-15T06:44:15.374Z,96315.00
2023-12-15T06:45:15.400Z,96314.00
2023-12-15T06:46:38.012Z,96315.00
2023-12-15T06:47:16.245Z,96317.00
2023-12-15T06:48:15.583Z,96319.00
2023-12-15T06:49:18.696Z,96322.00
2023-12-15T06:50:15.481Z,96323.00
2023-12-15T06:51:15.547Z,96328.00
2023-12-15T06:52:15.530Z,96330.00
2023-12-15T06:53:15.514Z,96330.00
2023-12-15T06:54:15.467Z,96329.00
2023-12-15T06:55:15.467Z,96329.00
2023-12-15T06:56:15.480Z,96331.00
2023-12-15T06:57:15.470Z,96335.00
2023-12-15T06:58:15.491Z,96339.00
2023-12-15T06:59:15.658Z,96342.00
2023-12-15T07:00:15.476Z,96346.00
2023-12-15T07:01:15.508Z,96348.00
2023-12-15T07:02:15.541Z,96349.00
2023-12-15T07:03:15.581Z,96350.00
2023-12-15T07:04:15.600Z,96354.00
2023-12-15T07:05:16.260Z,96360.00
2023-12-15T07:06:15.518Z,96363.00
2023-12-15T07:07:15.488Z,96365.00
2023-12-15T07:08:15.521Z,96366.00
2023-12-15T07:09:17.262Z,96367.00
2023-12-15T07:10:17.149Z,96370.00
2023-12-15T07:11:16.645Z,96368.00
2023-12-15T07:12:15.666Z,96373.00
2023-12-15T07:13:15.624Z,96377.00
2023-12-15T07:14:16.322Z,96380.00
2023-12-15T07:15:15.662Z,96385.00
2023-12-15T07:16:15.655Z,96389.00
2023-12-15T07:17:15.656Z,96393.00
2023-12-15T07:18:15.730Z,96395.00
2023-12-15T07:19:16.595Z,96397.00
2023-12-15T07:20:15.691Z,96399.00
2023-12-15T07:21:15.661Z,96403.00
2023-12-15T07:22:18.061Z,96404.00
2023-12-15T07:23:15.682Z,96409.00
2023-12-15T07:24:15.673Z,96411.00
2023-12-15T07:25:15.687Z,96411.00
2023-12-15T07:26:15.687Z,96411.00
2023-12-15T07:27:15.673Z,96414.00
2023-12-15T07:28:15.676Z,96419.00
2023-12-15T07:29:15.693Z,96423.00
2023-12-15T07:30:15.714Z,96423.00
2023-12-15T07:31:15.693Z,96430.00
2023-12-15T07:32:15.716Z,96431.00
2023-12-15T07:33:15.719Z,96434.00
2023-12-15T07:34:16.267Z,96437.00
2023-12-15T07:35:24.958Z,96439.00
2023-12-15T07:36:16.791Z,96441.00
2023-12-15T07:37:15.707Z,96440.00
2023-12-15T07:38:15.742Z,96444.00
2023-12-15T07:39:16.177Z,96448.00
2023-12-15T07:40:15.708Z,96453.00
2023-12-15T07:41:15.684Z,96452.00
2023-12-15T07:42:15.690Z,96453.00
2023-12-15T07:43:15.682Z,96454.00
2023-12-15T07:44:15.818Z,96452.00
2023-12-15T07:45:15.793Z,96457.00
2023-12-15T07:46:16.684Z,96462.00
2023-12-15T07:47:15.915Z,96462.00
2023-12-15T07:48:16.164Z,96465.00
2023-12-15T07:49:16.053Z,96467.00
2023-12-15T07:50:16.133Z,96472.00
2023-12-15T07:51:16.214Z,96474.00
2023-12-15T07:52:16.210Z,96478.00
2023-12-15T07:53:16.310Z,96477.00
2023-12-15T07:54:16.294Z,96478.00
2023-12-15T07:55:16.369Z,96480.00
2023-12-15T07:56:16.449Z,96487.00
2023-12-15T07:57:16.473Z,96486.00
2023-12-15T07:58:16.568Z,96487.00
2023-12-15T07:59:19.159Z,96486.00
2023-12-15T08:00:16.595Z,96488.00
2023-12-15T08:01:16.614Z,96492.00
2023-12-15T08:02:16.610Z,96497.00
2023-12-15T08:03:16.635Z,96501.00
2023-12-15T08:04:16.601Z,96501.00
2023-12-15T08:05:16.673Z,96504.00
2023-12-15T08:06:16.718Z,96503.00
2023-12-15T08:07:16.615Z,96501.00
2023-12-15T08:08:16.623Z,96503.00
2023-12-15T08:09:16.556Z,96502.00
2023-12-15T08:10:16.857Z,96501.00
2023-12-15T08:11:17.408Z,96503.00
2023-12-15T08:12:16.611Z,96502.00
2023-12-15T08:13:16.624Z,96505.00
2023-12-15T08:14:16.690Z,96508.00
2023-12-15T08:15:16.614Z,96508.00
2023-12-15T08:16:16.591Z,96506.00
2023-12-15T08:17:16.631Z,96508.00
2023-12-15T08:18:16.755Z,96508.00
2023-12-15T08:19:16.712Z,96509.00
2023-12-15T08:20:16.617Z,96511.00
2023-12-15T08:21:16.623Z,96519.00
2023-12-15T08:22:16.634Z,96519.00
2023-12-15T08:23:16.597Z,96521.00
2023-12-15T08:24:16.676Z,96525.00
2023-12-15T08:25:16.622Z,96528.00
2023-12-15T08:26:16.677Z,96529.00
2023-12-15T08:27:16.626Z,96528.00
2023-12-15T08:28:16.635Z,96530.00
2023-12-15T08:29:16.681Z,96533.00
2023-12-15T08:30:16.625Z,96535.00
2023-12-15T08:31:16.625Z,96539.00
2023-12-15T08:32:16.716Z,96541.00
2023-12-15T08:33:16.736Z,96543.00
2023-12-15T08:34:16.693Z,96544.00
2023-12-15T08:35:16.664Z,96546.00
2023-12-15T08:36:16.611Z,96549.00
2023-12-15T08:37:16.621Z,96549.00
2023-12-15T08:38:16.648Z,96550.00
2023-12-15T08:39:18.079Z,96548.00
2023-12-15T08:40:16.694Z,96551.00
2023-12-15T08:41:16.631Z,96551.00
2023-12-15T08:42:16.664Z,96555.00
2023-12-15T08:43:16.659Z,96557.00
2023-12-15T08:44:24.443Z,96559.00
2023-12-15T08:45:17.765Z,96562.00
2023-12-15T08:46:16.684Z,96565.00
2023-12-15T08:47:16.671Z,96565.00
2023-12-15T08:48:16.868Z,96562.00
2023-12-15T08:49:16.751Z,96563.00
2023-12-15T08:50:16.684Z,96564.00
2023-12-15T08:51:16.641Z,96565.00
2023-12-15T08:52:16.655Z,96567.00
2023-12-15T08:53:16.691Z,96573.00
2023-12-15T08:54:17.903Z,96577.00
2023-12-15T08:55:16.642Z,96579.00
2023-12-15T08:56:16.799Z,96579.00
2023-12-15T08:57:16.749Z,96580.00
2023-12-15T08:58:16.726Z,96578.00
2023-12-15T08:59:17.228Z,96579.00
2023-12-15T09:00:16.824Z,96581.00
2023-12-15T09:01:16.945Z,96581.00
2023-12-15T09:02:17.039Z,96587.00
2023-12-15T09:03:17.082Z,96588.00
2023-12-15T09:04:17.083Z,96587.00
2023-12-15T09:05:30.496Z,96589.00
2023-12-15T09:06:26.484Z,96592.00
2023-12-15T09:07:18.221Z,96594.00
2023-12-15T09:08:17.268Z,96598.00
2023-12-15T09:09:17.282Z,96598.00
2023-12-15T09:10:17.180Z,96597.00
2023-12-15T09:11:17.163Z,96598.00
2023-12-15T09:12:17.136Z,96599.00
2023-12-15T09:13:17.172Z,96602.00
2023-12-15T09:14:17.319Z,96602.00
2023-12-15T09:15:17.144Z,96601.00
2023-12-15T09:16:17.271Z,96603.00
2023-12-15T09:17:17.159Z,96600.00
2023-12-15T09:18:17.337Z,96599.00
2023-12-15T09:19:17.209Z,96600.00
2023-12-15T09:20:17.214Z,96601.00
2023-12-15T09:21:17.159Z,96608.00
2023-12-15T09:22:17.163Z,96609.00
2023-12-15T09:23:17.213Z,96608.00
2023-12-15T09:24:17.199Z,96608.00
2023-12-15T09:25:17.227Z,96609.00
2023-12-15T09:26:17.288Z,96610.00
2023-12-15T09:27:17.231Z,96610.00
2023-12-15T09:28:17.168Z,96613.00
2023-12-15T09:29:17.204Z,96614.00
2023-12-15T09:30:17.218Z,96615.00
2023-12-15T09:31:17.195Z,96608.00
2023-12-15T09:32:17.234Z,96615.00
2023-12-15T09:33:17.290Z,96616.00
2023-12-15T09:34:17.233Z,96616.00
2023-12-15T09:35:17.241Z,96623.00
2023-12-15T09:36:17.248Z,96621.00
2023-12-15T09:37:17.240Z,96622.00
2023-12-15T09:38:17.202Z,96621.00
2023-12-15T09:39:17.217Z,96624.00
2023-12-15T09:40:17.216Z,96623.00
2023-12-15T09:41:17.256Z,96623.00
2023-12-15T09:42:17.211Z,96619.00
2023-12-15T09:43:17.210Z,96621.00
2023-12-15T09:44:17.230Z,96624.00
2023-12-15T09:45:17.243Z,96625.00
2023-12-15T09:46:17.242Z,96628.00
2023-12-15T09:47:17.295Z,96631.00
2023-12-15T09:48:17.314Z,96634.00
2023-12-15T09:49:17.289Z,96634.00
2023-12-15T09:50:17.908Z,96639.00
2023-12-15T09:51:17.333Z,96637.00
2023-12-15T09:52:17.343Z,96636.00
2023-12-15T09:53:17.439Z,96636.00
2023-12-15T09:54:17.463Z,96639.00
2023-12-15T09:55:17.726Z,96639.00
2023-12-15T09:56:17.597Z,96637.00
2023-12-15T09:57:17.638Z,96637.00
2023-12-15T09:58:17.715Z,96639.00
2023-12-15T09:59:17.750Z,96639.00
2023-12-15T10:00:18.268Z,96640.00
2023-12-15T10:01:17.925Z,96642.00
2023-12-15T10:02:17.968Z,96642.00
2023-12-15T10:03:17.994Z,96647.00
2023-12-15T10:04:17.974Z,96644.00
2023-12-15T10:05:18.027Z,96644.00
2023-12-15T10:06:18.103Z,96645.00
2023-12-15T10:07:18.078Z,96643.00
2023-12-15T10:08:18.118Z,96646.00
2023-12-15T10:09:18.201Z,96646.00
2023-12-15T10:10:18.126Z,96645.00
2023-12-15T10:11:18.240Z,96647.00
2023-12-15T10:12:18.145Z,96650.00
2023-12-15T10:13:18.161Z,96651.00
2023-12-15T10:14:18.228Z,96653.00
2023-12-15T10:15:18.250Z,96655.00
2023-12-15T10:16:18.276Z,96656.00
2023-12-15T10:17:18.379Z,96657.00
2023-12-15T10:18:24.154Z,96653.00
2023-12-15T10:19:19.420Z,96652.00
2023-12-15T10:20:18.452Z,96651.00
2023-12-15T10:21:18.355Z,96652.00
2023-12-15T10:22:18.360Z,96652.00
2023-12-15T10:23:18.354Z,96653.00
2023-12-15T10:24:18.395Z,96654.00
2023-12-15T10:25:18.373Z,96651.00
2023-12-15T10:26:18.436Z,96657.00
2023-12-15T10:27:18.350Z,96656.00
2023-12-15T10:28:18.355Z,96657.00
2023-12-15T10:29:18.502Z,96653.00
2023-12-15T10:30:18.794Z,96649.00
2023-12-15T10:31:18.377Z,96648.00
2023-12-15T10:32:18.423Z,96648.00
2023-12-15T10:33:18.582Z,96648.00
2023-12-15T10:34:18.528Z,96652.00
2023-12-15T10:35:18.672Z,96652.00
2023-12-15T10:36:18.610Z,96657.00
2023-12-15T10:37:18.666Z,96659.00
2023-12-15T10:38:18.687Z,96667.00
2023-12-15T10:39:18.765Z,96669.00
2023-12-15T10:40:19.252Z,96671.00
2023-12-15T10:41:18.914Z,96667.00
2023-12-15T10:42:18.848Z,96666.00
2023-12-15T10:43:18.908Z,96668.00
2023-12-15T10:44:18.961Z,96673.00
2023-12-15T10:45:19.285Z,96667.00
2023-12-15T10:46:19.008Z,96666.00
2023-12-15T10:47:19.011Z,96667.00
2023-12-15T10:48:19.127Z,96672.00
2023-12-15T10:49:19.079Z,96672.00
2023-12-15T10:50:19.176Z,96674.00
2023-12-15T10:51:19.030Z,96674.00
2023-12-15T10:52:19.069Z,96674.00
2023-12-15T10:53:19.099Z,96677.00
2023-12-15T10:54:19.237Z,96671.00
2023-12-15T10:55:19.245Z,96678.00
2023-12-15T10:56:19.329Z,96680.00
2023-12-15T10:57:19.380Z,96685.00
2023-12-15T10:58:19.428Z,96686.00
2023-12-15T10:59:20.270Z,96690.00
2023-12-15T11:00:19.483Z,96693.00
2023-12-15T11:01:19.499Z,96695.00
2023-12-15T11:02:19.632Z,96699.00
2023-12-15T11:03:19.584Z,96696.00
2023-12-15T11:04:19.563Z,96696.00
2023-12-15T11:06:19.663Z,96698.00
2023-12-15T11:07:19.803Z,96699.00
2023-12-15T11:08:19.866Z,96700.00
2023-12-15T11:09:19.755Z,96701.00
2023-12-15T11:10:19.839Z,96698.00
2023-12-15T11:11:19.997Z,96699.00
2023-12-15T11:12:19.899Z,96700.00
2023-12-15T11:13:19.954Z,96697.00
2023-12-15T11:14:20.031Z,96697.00
2023-12-15T11:15:20.000Z,96698.00
2023-12-15T11:16:20.074Z,96697.00
2023-12-15T11:17:20.124Z,96700.00
2023-12-15T11:18:20.271Z,96699.00
2023-12-15T11:19:20.215Z,96699.00
2023-12-15T11:20:20.271Z,96698.00
2023-12-15T11:21:20.211Z,96698.00
2023-12-15T11:22:20.206Z,96699.00
2023-12-15T11:23:20.280Z,96702.00
2023-12-15T11:24:20.279Z,96703.00
2023-12-15T11:25:20.333Z,96704.00
2023-12-15T11:26:20.342Z,96702.00
2023-12-15T11:27:20.334Z,96700.00
2023-12-15T11:28:20.348Z,96700.00
2023-12-15T11:29:20.384Z,96699.00
2023-12-15T11:30:20.436Z,96699.00
2023-12-15T11:31:20.779Z,96700.00
2023-12-15T11:32:20.504Z,96700.00
2023-12-15T11:33:20.498Z,96690.00
2023-12-15T11:34:20.585Z,96700.00
2023-12-15T11:35:20.557Z,96698.00
2023-12-15T11:36:20.820Z,96701.00
2023-12-15T11:37:20.517Z,96700.00
2023-12-15T11:38:20.661Z,96703.00
2023-12-15T11:39:20.667Z,96703.00
2023-12-15T11:40:20.686Z,96705.00
2023-12-15T11:41:21.040Z,96706.00
2023-12-15T11:42:20.758Z,96707.00
2023-12-15T11:43:20.784Z,96705.00
2023-12-15T11:44:20.895Z,96707.00
2023-12-15T11:45:20.958Z,96710.00
2023-12-15T11:46:20.932Z,96709.00